sensor_id;sensor_type;location;lat;lon;timestamp;P1;durP1;ratioP1;P2;durP2;ratioP2
12554;SDS011;6343;50.868;4.700;2023-06-14T00:01:33;9.55;;;5.07;;
12554;SDS011;6343;50.868;4.700;2023-06-14T00:04:02;12.98;;;5.13;;
12554;SDS011;6343;50.868;4.700;2023-06-14T00:06:30;5.68;;;5.05;;
12554;SDS011;6343;50.868;4.700;2023-06-14T00:08:56;7.43;;;4.85;;
12554;SDS011;6343;50.868;4.700;2023-06-14T00:11:22;13.93;;;5.07;;
12554;SDS011;6343;50.868;4.700;2023-06-14T00:13:48;8.60;;;5.78;;
12554;SDS011;6343;50.868;4.700;2023-06-14T00:16:14;6.25;;;4.80;;
12554;SDS011;6343;50.868;4.700;2023-06-14T00:18:41;10.30;;;4.75;;
12554;SDS011;6343;50.868;4.700;2023-06-14T00:21:08;6.82;;;4.68;;
12554;SDS011;6343;50.868;4.700;2023-06-14T00:23:35;8.20;;;5.15;;
12554;SDS011;6343;50.868;4.700;2023-06-14T00:26:01;6.03;;;4.60;;
12554;SDS011;6343;50.868;4.700;2023-06-14T00:28:27;11.27;;;5.05;;
12554;SDS011;6343;50.868;4.700;2023-06-14T00:30:53;7.00;;;4.65;;
12554;SDS011;6343;50.868;4.700;2023-06-14T00:33:19;8.18;;;4.55;;
12554;SDS011;6343;50.868;4.700;2023-06-14T00:35:45;9.25;;;5.00;;
12554;SDS011;6343;50.868;4.700;2023-06-14T00:38:12;6.18;;;4.90;;
12554;SDS011;6343;50.868;4.700;2023-06-14T00:40:38;5.95;;;5.07;;
12554;SDS011;6343;50.868;4.700;2023-06-14T00:43:04;9.55;;;4.90;;
12554;SDS011;6343;50.868;4.700;2023-06-14T00:45:31;9.63;;;4.78;;
12554;SDS011;6343;50.868;4.700;2023-06-14T00:48:01;5.00;;;4.50;;
12554;SDS011;6343;50.868;4.700;2023-06-14T00:50:27;6.88;;;5.03;;
12554;SDS011;6343;50.868;4.700;2023-06-14T00:52:55;7.57;;;5.55;;
12554;SDS011;6343;50.868;4.700;2023-06-14T00:55:21;10.98;;;5.18;;
12554;SDS011;6343;50.868;4.700;2023-06-14T00:57:47;11.80;;;4.85;;
12554;SDS011;6343;50.868;4.700;2023-06-14T01:00:14;9.27;;;5.40;;
12554;SDS011;6343;50.868;4.700;2023-06-14T01:02:40;7.88;;;5.00;;
12554;SDS011;6343;50.868;4.700;2023-06-14T01:05:07;10.05;;;5.30;;
12554;SDS011;6343;50.868;4.700;2023-06-14T01:12:58;6.70;;;4.75;;
12554;SDS011;6343;50.868;4.700;2023-06-14T01:15:22;6.78;;;5.20;;
12554;SDS011;6343;50.868;4.700;2023-06-14T01:17:49;6.43;;;5.50;;
12554;SDS011;6343;50.868;4.700;2023-06-14T01:20:19;8.65;;;4.90;;
12554;SDS011;6343;50.868;4.700;2023-06-14T01:22:55;8.65;;;5.55;;
12554;SDS011;6343;50.868;4.700;2023-06-14T01:25:21;11.57;;;5.10;;
12554;SDS011;6343;50.868;4.700;2023-06-14T01:27:58;5.78;;;5.20;;
12554;SDS011;6343;50.868;4.700;2023-06-14T01:30:24;7.78;;;5.38;;
12554;SDS011;6343;50.868;4.700;2023-06-14T01:32:51;9.38;;;5.57;;
12554;SDS011;6343;50.868;4.700;2023-06-14T01:35:18;9.57;;;5.63;;
12554;SDS011;6343;50.868;4.700;2023-06-14T01:37:44;8.38;;;5.38;;
12554;SDS011;6343;50.868;4.700;2023-06-14T01:40:12;8.93;;;5.37;;
12554;SDS011;6343;50.868;4.700;2023-06-14T01:42:38;8.10;;;6.10;;
12554;SDS011;6343;50.868;4.700;2023-06-14T01:45:05;8.88;;;6.00;;
12554;SDS011;6343;50.868;4.700;2023-06-14T01:47:31;11.52;;;5.63;;
12554;SDS011;6343;50.868;4.700;2023-06-14T01:49:57;9.55;;;5.38;;
12554;SDS011;6343;50.868;4.700;2023-06-14T01:52:23;8.80;;;5.70;;
12554;SDS011;6343;50.868;4.700;2023-06-14T01:54:50;7.63;;;6.03;;
12554;SDS011;6343;50.868;4.700;2023-06-14T01:57:16;8.10;;;5.43;;
12554;SDS011;6343;50.868;4.700;2023-06-14T01:59:42;6.63;;;5.93;;
12554;SDS011;6343;50.868;4.700;2023-06-14T02:02:13;11.13;;;6.20;;
12554;SDS011;6343;50.868;4.700;2023-06-14T02:04:40;7.83;;;5.90;;
12554;SDS011;6343;50.868;4.700;2023-06-14T02:07:06;14.43;;;5.77;;
12554;SDS011;6343;50.868;4.700;2023-06-14T02:09:33;11.33;;;6.50;;
12554;SDS011;6343;50.868;4.700;2023-06-14T02:11:59;7.57;;;5.43;;
12554;SDS011;6343;50.868;4.700;2023-06-14T02:14:25;7.53;;;5.90;;
12554;SDS011;6343;50.868;4.700;2023-06-14T02:16:51;8.47;;;6.07;;
12554;SDS011;6343;50.868;4.700;2023-06-14T02:19:18;8.67;;;5.87;;
12554;SDS011;6343;50.868;4.700;2023-06-14T02:21:44;45.53;;;8.70;;
12554;SDS011;6343;50.868;4.700;2023-06-14T02:24:10;9.60;;;5.50;;
12554;SDS011;6343;50.868;4.700;2023-06-14T02:26:36;6.90;;;6.20;;
12554;SDS011;6343;50.868;4.700;2023-06-14T02:29:06;7.47;;;6.30;;
12554;SDS011;6343;50.868;4.700;2023-06-14T02:31:35;7.03;;;5.97;;
12554;SDS011;6343;50.868;4.700;2023-06-14T02:34:01;9.90;;;6.97;;
12554;SDS011;6343;50.868;4.700;2023-06-14T02:36:27;11.37;;;6.70;;
12554;SDS011;6343;50.868;4.700;2023-06-14T02:38:56;8.97;;;6.30;;
12554;SDS011;6343;50.868;4.700;2023-06-14T02:41:23;10.63;;;6.17;;
12554;SDS011;6343;50.868;4.700;2023-06-14T02:43:49;7.60;;;6.43;;
12554;SDS011;6343;50.868;4.700;2023-06-14T02:46:15;8.90;;;6.27;;
12554;SDS011;6343;50.868;4.700;2023-06-14T02:48:41;7.63;;;6.13;;
12554;SDS011;6343;50.868;4.700;2023-06-14T02:51:07;8.33;;;6.53;;
12554;SDS011;6343;50.868;4.700;2023-06-14T02:53:35;9.27;;;6.80;;
12554;SDS011;6343;50.868;4.700;2023-06-14T02:56:05;8.83;;;6.20;;
12554;SDS011;6343;50.868;4.700;2023-06-14T02:58:31;8.40;;;6.13;;
12554;SDS011;6343;50.868;4.700;2023-06-14T03:00:58;8.27;;;6.43;;
12554;SDS011;6343;50.868;4.700;2023-06-14T03:03:28;10.00;;;6.80;;
12554;SDS011;6343;50.868;4.700;2023-06-14T03:05:54;6.80;;;6.07;;
12554;SDS011;6343;50.868;4.700;2023-06-14T03:08:21;8.50;;;6.10;;
12554;SDS011;6343;50.868;4.700;2023-06-14T03:10:52;11.90;;;6.53;;
12554;SDS011;6343;50.868;4.700;2023-06-14T03:13:18;11.90;;;6.77;;
12554;SDS011;6343;50.868;4.700;2023-06-14T03:15:48;8.00;;;6.20;;
12554;SDS011;6343;50.868;4.700;2023-06-14T03:18:17;13.30;;;6.43;;
12554;SDS011;6343;50.868;4.700;2023-06-14T03:20:44;10.20;;;6.50;;
12554;SDS011;6343;50.868;4.700;2023-06-14T03:23:13;7.83;;;5.60;;
12554;SDS011;6343;50.868;4.700;2023-06-14T03:25:39;7.63;;;6.47;;
12554;SDS011;6343;50.868;4.700;2023-06-14T03:28:07;11.20;;;6.43;;
12554;SDS011;6343;50.868;4.700;2023-06-14T03:30:33;9.30;;;6.33;;
12554;SDS011;6343;50.868;4.700;2023-06-14T03:32:59;8.07;;;6.30;;
12554;SDS011;6343;50.868;4.700;2023-06-14T03:35:29;9.50;;;6.60;;
12554;SDS011;6343;50.868;4.700;2023-06-14T03:37:55;8.10;;;6.10;;
12554;SDS011;6343;50.868;4.700;2023-06-14T03:40:22;8.43;;;6.33;;
12554;SDS011;6343;50.868;4.700;2023-06-14T03:42:52;13.40;;;6.60;;
12554;SDS011;6343;50.868;4.700;2023-06-14T03:45:18;8.80;;;6.37;;
12554;SDS011;6343;50.868;4.700;2023-06-14T03:47:44;8.17;;;6.33;;
12554;SDS011;6343;50.868;4.700;2023-06-14T03:50:10;12.57;;;6.73;;
12554;SDS011;6343;50.868;4.700;2023-06-14T03:52:37;8.27;;;6.63;;
12554;SDS011;6343;50.868;4.700;2023-06-14T03:55:03;10.90;;;6.90;;
12554;SDS011;6343;50.868;4.700;2023-06-14T03:57:29;10.90;;;6.87;;
12554;SDS011;6343;50.868;4.700;2023-06-14T03:59:56;8.37;;;6.73;;
12554;SDS011;6343;50.868;4.700;2023-06-14T04:02:22;11.67;;;6.87;;
12554;SDS011;6343;50.868;4.700;2023-06-14T04:04:48;10.17;;;6.43;;
12554;SDS011;6343;50.868;4.700;2023-06-14T04:07:16;9.47;;;6.67;;
12554;SDS011;6343;50.868;4.700;2023-06-14T04:09:44;8.60;;;6.50;;
12554;SDS011;6343;50.868;4.700;2023-06-14T04:12:10;7.97;;;6.80;;
12554;SDS011;6343;50.868;4.700;2023-06-14T04:14:37;10.80;;;6.60;;
12554;SDS011;6343;50.868;4.700;2023-06-14T04:17:03;12.50;;;7.17;;
12554;SDS011;6343;50.868;4.700;2023-06-14T04:19:29;10.60;;;6.03;;
12554;SDS011;6343;50.868;4.700;2023-06-14T04:21:55;10.87;;;6.40;;
12554;SDS011;6343;50.868;4.700;2023-06-14T04:24:22;13.90;;;7.10;;
12554;SDS011;6343;50.868;4.700;2023-06-14T04:26:48;13.40;;;7.23;;
12554;SDS011;6343;50.868;4.700;2023-06-14T04:29:14;9.43;;;7.13;;
12554;SDS011;6343;50.868;4.700;2023-06-14T04:31:42;11.20;;;7.03;;
12554;SDS011;6343;50.868;4.700;2023-06-14T04:34:09;9.57;;;7.13;;
12554;SDS011;6343;50.868;4.700;2023-06-14T04:36:44;9.77;;;6.67;;
12554;SDS011;6343;50.868;4.700;2023-06-14T04:39:17;17.90;;;7.67;;
12554;SDS011;6343;50.868;4.700;2023-06-14T04:41:44;8.83;;;6.40;;
12554;SDS011;6343;50.868;4.700;2023-06-14T04:44:10;10.70;;;7.37;;
12554;SDS011;6343;50.868;4.700;2023-06-14T04:46:38;9.87;;;7.03;;
12554;SDS011;6343;50.868;4.700;2023-06-14T04:49:12;9.90;;;7.30;;
12554;SDS011;6343;50.868;4.700;2023-06-14T04:51:39;12.97;;;7.20;;
12554;SDS011;6343;50.868;4.700;2023-06-14T04:54:06;13.50;;;7.90;;
12554;SDS011;6343;50.868;4.700;2023-06-14T04:56:35;15.97;;;7.20;;
12554;SDS011;6343;50.868;4.700;2023-06-14T04:59:02;10.63;;;7.33;;
12554;SDS011;6343;50.868;4.700;2023-06-14T05:01:32;9.20;;;7.10;;
12554;SDS011;6343;50.868;4.700;2023-06-14T05:03:58;14.03;;;7.10;;
12554;SDS011;6343;50.868;4.700;2023-06-14T05:06:25;14.33;;;7.30;;
12554;SDS011;6343;50.868;4.700;2023-06-14T05:08:53;12.40;;;7.10;;
12554;SDS011;6343;50.868;4.700;2023-06-14T05:11:19;14.10;;;7.30;;
12554;SDS011;6343;50.868;4.700;2023-06-14T05:13:45;11.00;;;7.17;;
12554;SDS011;6343;50.868;4.700;2023-06-14T05:16:12;10.30;;;7.03;;
12554;SDS011;6343;50.868;4.700;2023-06-14T05:18:40;11.03;;;6.93;;
12554;SDS011;6343;50.868;4.700;2023-06-14T05:21:06;17.10;;;7.83;;
12554;SDS011;6343;50.868;4.700;2023-06-14T05:23:33;10.80;;;7.27;;
12554;SDS011;6343;50.868;4.700;2023-06-14T05:25:59;8.47;;;6.60;;
12554;SDS011;6343;50.868;4.700;2023-06-14T05:28:27;18.03;;;7.13;;
12554;SDS011;6343;50.868;4.700;2023-06-14T05:30:54;12.33;;;7.50;;
12554;SDS011;6343;50.868;4.700;2023-06-14T05:33:20;9.77;;;6.90;;
12554;SDS011;6343;50.868;4.700;2023-06-14T05:35:46;9.17;;;7.20;;
12554;SDS011;6343;50.868;4.700;2023-06-14T05:38:12;9.47;;;7.47;;
12554;SDS011;6343;50.868;4.700;2023-06-14T05:40:39;12.03;;;7.07;;
12554;SDS011;6343;50.868;4.700;2023-06-14T05:43:06;12.67;;;7.13;;
12554;SDS011;6343;50.868;4.700;2023-06-14T05:45:32;14.23;;;7.43;;
12554;SDS011;6343;50.868;4.700;2023-06-14T05:47:58;11.40;;;7.83;;
12554;SDS011;6343;50.868;4.700;2023-06-14T05:50:24;13.30;;;6.90;;
12554;SDS011;6343;50.868;4.700;2023-06-14T05:52:51;10.17;;;7.30;;
12554;SDS011;6343;50.868;4.700;2023-06-14T05:55:20;12.60;;;7.23;;
12554;SDS011;6343;50.868;4.700;2023-06-14T05:57:46;13.40;;;7.17;;
12554;SDS011;6343;50.868;4.700;2023-06-14T06:00:13;14.33;;;8.20;;
12554;SDS011;6343;50.868;4.700;2023-06-14T06:02:44;12.80;;;7.07;;
12554;SDS011;6343;50.868;4.700;2023-06-14T06:05:13;16.87;;;6.90;;
12554;SDS011;6343;50.868;4.700;2023-06-14T06:07:42;10.20;;;6.80;;
12554;SDS011;6343;50.868;4.700;2023-06-14T06:10:11;11.98;;;6.38;;
12554;SDS011;6343;50.868;4.700;2023-06-14T06:12:37;10.32;;;6.78;;
12554;SDS011;6343;50.868;4.700;2023-06-14T06:15:04;10.32;;;6.88;;
12554;SDS011;6343;50.868;4.700;2023-06-14T06:17:30;9.90;;;6.47;;
12554;SDS011;6343;50.868;4.700;2023-06-14T06:19:56;9.60;;;6.25;;
12554;SDS011;6343;50.868;4.700;2023-06-14T06:22:22;12.32;;;6.15;;
12554;SDS011;6343;50.868;4.700;2023-06-14T06:24:48;14.65;;;6.57;;
12554;SDS011;6343;50.868;4.700;2023-06-14T06:27:14;13.23;;;6.55;;
12554;SDS011;6343;50.868;4.700;2023-06-14T06:29:41;9.05;;;6.18;;
12554;SDS011;6343;50.868;4.700;2023-06-14T06:32:09;9.27;;;6.30;;
12554;SDS011;6343;50.868;4.700;2023-06-14T06:34:35;12.02;;;6.40;;
12554;SDS011;6343;50.868;4.700;2023-06-14T06:37:02;13.00;;;6.38;;
12554;SDS011;6343;50.868;4.700;2023-06-14T06:39:28;9.95;;;6.18;;
12554;SDS011;6343;50.868;4.700;2023-06-14T06:41:54;15.65;;;6.18;;
12554;SDS011;6343;50.868;4.700;2023-06-14T06:44:20;10.18;;;6.18;;
12554;SDS011;6343;50.868;4.700;2023-06-14T06:46:46;7.68;;;5.20;;
12554;SDS011;6343;50.868;4.700;2023-06-14T06:49:12;8.82;;;6.07;;
12554;SDS011;6343;50.868;4.700;2023-06-14T06:51:42;9.90;;;5.85;;
12554;SDS011;6343;50.868;4.700;2023-06-14T06:54:09;17.80;;;6.70;;
12554;SDS011;6343;50.868;4.700;2023-06-14T06:56:35;8.77;;;5.65;;
12554;SDS011;6343;50.868;4.700;2023-06-14T06:59:01;11.05;;;5.78;;
12554;SDS011;6343;50.868;4.700;2023-06-14T07:01:27;8.60;;;5.35;;
12554;SDS011;6343;50.868;4.700;2023-06-14T07:03:57;7.93;;;5.82;;
12554;SDS011;6343;50.868;4.700;2023-06-14T07:06:23;12.57;;;6.05;;
12554;SDS011;6343;50.868;4.700;2023-06-14T07:08:52;12.50;;;5.85;;
12554;SDS011;6343;50.868;4.700;2023-06-14T07:11:18;8.93;;;6.30;;
12554;SDS011;6343;50.868;4.700;2023-06-14T07:13:45;11.90;;;5.88;;
12554;SDS011;6343;50.868;4.700;2023-06-14T07:16:11;8.88;;;5.80;;
12554;SDS011;6343;50.868;4.700;2023-06-14T07:18:37;7.72;;;6.25;;
12554;SDS011;6343;50.868;4.700;2023-06-14T07:21:03;12.45;;;5.95;;
12554;SDS011;6343;50.868;4.700;2023-06-14T07:23:29;8.40;;;5.55;;
12554;SDS011;6343;50.868;4.700;2023-06-14T07:25:55;14.27;;;6.55;;
12554;SDS011;6343;50.868;4.700;2023-06-14T07:28:21;8.93;;;5.40;;
12554;SDS011;6343;50.868;4.700;2023-06-14T07:30:47;7.38;;;5.38;;
12554;SDS011;6343;50.868;4.700;2023-06-14T07:33:13;8.57;;;5.68;;
12554;SDS011;6343;50.868;4.700;2023-06-14T07:35:39;13.45;;;5.85;;
12554;SDS011;6343;50.868;4.700;2023-06-14T07:38:06;8.48;;;5.82;;
12554;SDS011;6343;50.868;4.700;2023-06-14T07:40:32;12.63;;;5.90;;
12554;SDS011;6343;50.868;4.700;2023-06-14T07:42:58;6.45;;;5.10;;
12554;SDS011;6343;50.868;4.700;2023-06-14T07:45:24;6.70;;;5.13;;
12554;SDS011;6343;50.868;4.700;2023-06-14T07:47:50;8.52;;;4.78;;
12554;SDS011;6343;50.868;4.700;2023-06-14T07:50:16;8.85;;;5.40;;
12554;SDS011;6343;50.868;4.700;2023-06-14T07:52:43;7.55;;;5.53;;
12554;SDS011;6343;50.868;4.700;2023-06-14T07:55:10;8.90;;;5.65;;
12554;SDS011;6343;50.868;4.700;2023-06-14T07:57:36;8.07;;;5.70;;
12554;SDS011;6343;50.868;4.700;2023-06-14T08:00:02;7.55;;;5.38;;
12554;SDS011;6343;50.868;4.700;2023-06-14T08:02:31;9.50;;;6.22;;
12554;SDS011;6343;50.868;4.700;2023-06-14T08:04:57;13.30;;;5.72;;
12554;SDS011;6343;50.868;4.700;2023-06-14T08:07:23;10.38;;;5.68;;
12554;SDS011;6343;50.868;4.700;2023-06-14T08:09:49;8.35;;;6.20;;
12554;SDS011;6343;50.868;4.700;2023-06-14T08:12:16;15.27;;;6.28;;
12554;SDS011;6343;50.868;4.700;2023-06-14T08:14:42;12.90;;;5.57;;
12554;SDS011;6343;50.868;4.700;2023-06-14T08:17:08;7.88;;;5.38;;
12554;SDS011;6343;50.868;4.700;2023-06-14T08:19:34;7.40;;;5.45;;
12554;SDS011;6343;50.868;4.700;2023-06-14T08:22:00;12.48;;;5.80;;
12554;SDS011;6343;50.868;4.700;2023-06-14T08:24:26;8.88;;;5.57;;
12554;SDS011;6343;50.868;4.700;2023-06-14T08:26:53;14.40;;;6.00;;
12554;SDS011;6343;50.868;4.700;2023-06-14T08:29:19;10.73;;;5.70;;
12554;SDS011;6343;50.868;4.700;2023-06-14T08:31:46;9.27;;;5.78;;
12554;SDS011;6343;50.868;4.700;2023-06-14T08:34:12;11.43;;;5.88;;
12554;SDS011;6343;50.868;4.700;2023-06-14T08:36:38;10.30;;;5.93;;
12554;SDS011;6343;50.868;4.700;2023-06-14T08:39:04;9.57;;;5.75;;
12554;SDS011;6343;50.868;4.700;2023-06-14T08:41:31;12.07;;;5.45;;
12554;SDS011;6343;50.868;4.700;2023-06-14T08:43:58;14.45;;;5.30;;
12554;SDS011;6343;50.868;4.700;2023-06-14T08:46:25;6.32;;;5.72;;
12554;SDS011;6343;50.868;4.700;2023-06-14T08:48:52;11.25;;;5.25;;
12554;SDS011;6343;50.868;4.700;2023-06-14T08:51:22;9.52;;;5.35;;
12554;SDS011;6343;50.868;4.700;2023-06-14T08:53:52;8.50;;;5.82;;
12554;SDS011;6343;50.868;4.700;2023-06-14T08:56:24;9.23;;;5.32;;
12554;SDS011;6343;50.868;4.700;2023-06-14T08:58:51;12.65;;;5.63;;
12554;SDS011;6343;50.868;4.700;2023-06-14T09:01:17;9.13;;;5.40;;
12554;SDS011;6343;50.868;4.700;2023-06-14T09:03:44;10.90;;;5.32;;
12554;SDS011;6343;50.868;4.700;2023-06-14T09:06:10;7.90;;;5.75;;
12554;SDS011;6343;50.868;4.700;2023-06-14T09:11:08;11.60;;;5.53;;
12554;SDS011;6343;50.868;4.700;2023-06-14T09:13:34;7.25;;;5.22;;
12554;SDS011;6343;50.868;4.700;2023-06-14T09:16:00;9.10;;;4.70;;
12554;SDS011;6343;50.868;4.700;2023-06-14T09:18:33;7.15;;;4.75;;
12554;SDS011;6343;50.868;4.700;2023-06-14T09:21:00;7.72;;;5.20;;
12554;SDS011;6343;50.868;4.700;2023-06-14T09:23:26;12.65;;;5.60;;
12554;SDS011;6343;50.868;4.700;2023-06-14T09:25:52;11.90;;;5.15;;
12554;SDS011;6343;50.868;4.700;2023-06-14T09:28:18;7.70;;;4.75;;
12554;SDS011;6343;50.868;4.700;2023-06-14T09:30:47;7.93;;;5.28;;
12554;SDS011;6343;50.868;4.700;2023-06-14T09:33:17;8.55;;;5.13;;
12554;SDS011;6343;50.868;4.700;2023-06-14T09:35:45;9.55;;;5.43;;
12554;SDS011;6343;50.868;4.700;2023-06-14T09:38:11;8.90;;;4.72;;
12554;SDS011;6343;50.868;4.700;2023-06-14T09:40:37;8.88;;;4.57;;
12554;SDS011;6343;50.868;4.700;2023-06-14T09:43:06;7.38;;;4.88;;
12554;SDS011;6343;50.868;4.700;2023-06-14T09:45:36;8.25;;;4.68;;
12554;SDS011;6343;50.868;4.700;2023-06-14T09:48:05;13.85;;;4.78;;
12554;SDS011;6343;50.868;4.700;2023-06-14T09:50:32;7.47;;;4.45;;
12554;SDS011;6343;50.868;4.700;2023-06-14T09:52:59;10.30;;;3.97;;
12554;SDS011;6343;50.868;4.700;2023-06-14T09:55:27;16.17;;;4.82;;
12554;SDS011;6343;50.868;4.700;2023-06-14T09:57:56;12.18;;;5.03;;
12554;SDS011;6343;50.868;4.700;2023-06-14T10:00:22;7.15;;;4.15;;
12554;SDS011;6343;50.868;4.700;2023-06-14T10:02:49;7.07;;;4.20;;
12554;SDS011;6343;50.868;4.700;2023-06-14T10:05:19;5.82;;;4.35;;
12554;SDS011;6343;50.868;4.700;2023-06-14T10:07:52;5.43;;;4.25;;
12554;SDS011;6343;50.868;4.700;2023-06-14T10:10:19;7.63;;;4.00;;
12554;SDS011;6343;50.868;4.700;2023-06-14T10:12:46;7.47;;;4.03;;
12554;SDS011;6343;50.868;4.700;2023-06-14T10:15:17;7.43;;;4.03;;
12554;SDS011;6343;50.868;4.700;2023-06-14T10:17:52;8.63;;;3.80;;
12554;SDS011;6343;50.868;4.700;2023-06-14T10:23:10;7.55;;;4.05;;
12554;SDS011;6343;50.868;4.700;2023-06-14T10:25:37;5.18;;;3.92;;
12554;SDS011;6343;50.868;4.700;2023-06-14T10:30:30;7.78;;;4.10;;
12554;SDS011;6343;50.868;4.700;2023-06-14T10:33:03;5.55;;;3.55;;
12554;SDS011;6343;50.868;4.700;2023-06-14T10:35:31;6.07;;;3.97;;
12554;SDS011;6343;50.868;4.700;2023-06-14T10:38:07;13.25;;;4.30;;
12554;SDS011;6343;50.868;4.700;2023-06-14T10:40:33;8.95;;;4.93;;
12554;SDS011;6343;50.868;4.700;2023-06-14T10:43:00;7.32;;;4.15;;
12554;SDS011;6343;50.868;4.700;2023-06-14T10:45:26;10.70;;;4.28;;
12554;SDS011;6343;50.868;4.700;2023-06-14T10:47:52;7.25;;;3.85;;
12554;SDS011;6343;50.868;4.700;2023-06-14T10:50:22;5.15;;;3.58;;
12554;SDS011;6343;50.868;4.700;2023-06-14T10:52:54;6.22;;;3.85;;
12554;SDS011;6343;50.868;4.700;2023-06-14T10:55:20;4.88;;;3.97;;
12554;SDS011;6343;50.868;4.700;2023-06-14T10:57:52;5.05;;;3.63;;
12554;SDS011;6343;50.868;4.700;2023-06-14T11:00:28;10.40;;;3.80;;
12554;SDS011;6343;50.868;4.700;2023-06-14T11:10:59;8.77;;;3.92;;
12554;SDS011;6343;50.868;4.700;2023-06-14T11:13:26;7.75;;;3.95;;
12554;SDS011;6343;50.868;4.700;2023-06-14T11:15:53;5.85;;;3.75;;
12554;SDS011;6343;50.868;4.700;2023-06-14T11:18:21;11.80;;;3.10;;
12554;SDS011;6343;50.868;4.700;2023-06-14T11:20:52;11.45;;;3.83;;
12554;SDS011;6343;50.868;4.700;2023-06-14T11:23:18;6.85;;;3.90;;
12554;SDS011;6343;50.868;4.700;2023-06-14T11:25:51;4.75;;;3.50;;
12554;SDS011;6343;50.868;4.700;2023-06-14T11:28:17;7.70;;;3.65;;
12554;SDS011;6343;50.868;4.700;2023-06-14T11:30:45;7.00;;;3.50;;
12554;SDS011;6343;50.868;4.700;2023-06-14T11:33:14;4.90;;;3.40;;
12554;SDS011;6343;50.868;4.700;2023-06-14T11:35:42;6.18;;;3.03;;
12554;SDS011;6343;50.868;4.700;2023-06-14T11:38:09;7.30;;;3.50;;
12554;SDS011;6343;50.868;4.700;2023-06-14T11:40:37;6.25;;;3.47;;
12554;SDS011;6343;50.868;4.700;2023-06-14T11:43:03;9.30;;;3.33;;
12554;SDS011;6343;50.868;4.700;2023-06-14T11:45:29;6.10;;;3.60;;
12554;SDS011;6343;50.868;4.700;2023-06-14T11:47:56;11.20;;;3.58;;
12554;SDS011;6343;50.868;4.700;2023-06-14T11:50:22;7.88;;;3.42;;
12554;SDS011;6343;50.868;4.700;2023-06-14T11:52:59;6.47;;;3.38;;
12554;SDS011;6343;50.868;4.700;2023-06-14T11:55:32;9.18;;;3.83;;
12554;SDS011;6343;50.868;4.700;2023-06-14T11:57:58;5.38;;;3.40;;
12554;SDS011;6343;50.868;4.700;2023-06-14T12:00:25;9.43;;;3.45;;
12554;SDS011;6343;50.868;4.700;2023-06-14T12:02:55;8.18;;;4.05;;
12554;SDS011;6343;50.868;4.700;2023-06-14T12:05:22;8.70;;;3.33;;
12554;SDS011;6343;50.868;4.700;2023-06-14T12:07:48;9.13;;;3.40;;
12554;SDS011;6343;50.868;4.700;2023-06-14T12:10:15;8.32;;;3.65;;
12554;SDS011;6343;50.868;4.700;2023-06-14T12:12:41;6.60;;;3.30;;
12554;SDS011;6343;50.868;4.700;2023-06-14T12:15:08;8.07;;;3.08;;
12554;SDS011;6343;50.868;4.700;2023-06-14T12:17:36;7.40;;;3.25;;
12554;SDS011;6343;50.868;4.700;2023-06-14T12:20:07;6.93;;;3.63;;
12554;SDS011;6343;50.868;4.700;2023-06-14T12:22:39;5.18;;;2.95;;
12554;SDS011;6343;50.868;4.700;2023-06-14T12:25:05;4.88;;;3.00;;
12554;SDS011;6343;50.868;4.700;2023-06-14T12:27:34;9.82;;;3.55;;
12554;SDS011;6343;50.868;4.700;2023-06-14T12:30:02;8.02;;;3.05;;
12554;SDS011;6343;50.868;4.700;2023-06-14T12:32:28;5.95;;;2.72;;
12554;SDS011;6343;50.868;4.700;2023-06-14T12:34:55;5.00;;;3.17;;
12554;SDS011;6343;50.868;4.700;2023-06-14T12:37:21;7.10;;;2.70;;
12554;SDS011;6343;50.868;4.700;2023-06-14T12:39:47;4.80;;;2.95;;
12554;SDS011;6343;50.868;4.700;2023-06-14T12:42:13;4.80;;;2.70;;
12554;SDS011;6343;50.868;4.700;2023-06-14T12:44:40;7.10;;;3.28;;
12554;SDS011;6343;50.868;4.700;2023-06-14T12:47:07;3.72;;;2.88;;
12554;SDS011;6343;50.868;4.700;2023-06-14T12:49:33;3.72;;;2.42;;
12554;SDS011;6343;50.868;4.700;2023-06-14T12:51:59;5.47;;;2.50;;
12554;SDS011;6343;50.868;4.700;2023-06-14T12:54:25;8.25;;;2.42;;
12554;SDS011;6343;50.868;4.700;2023-06-14T12:56:52;4.55;;;2.35;;
12554;SDS011;6343;50.868;4.700;2023-06-14T12:59:18;3.72;;;2.60;;
12554;SDS011;6343;50.868;4.700;2023-06-14T13:01:44;4.57;;;2.30;;
12554;SDS011;6343;50.868;4.700;2023-06-14T13:04:12;2.67;;;2.25;;
12554;SDS011;6343;50.868;4.700;2023-06-14T13:06:38;9.63;;;2.35;;
12554;SDS011;6343;50.868;4.700;2023-06-14T13:09:05;5.53;;;2.53;;
12554;SDS011;6343;50.868;4.700;2023-06-14T13:11:31;4.43;;;2.58;;
12554;SDS011;6343;50.868;4.700;2023-06-14T13:13:57;4.32;;;2.45;;
12554;SDS011;6343;50.868;4.700;2023-06-14T13:16:23;5.88;;;2.28;;
12554;SDS011;6343;50.868;4.700;2023-06-14T13:18:49;3.38;;;2.10;;
12554;SDS011;6343;50.868;4.700;2023-06-14T13:21:15;4.22;;;2.20;;
12554;SDS011;6343;50.868;4.700;2023-06-14T13:23:41;3.33;;;1.63;;
12554;SDS011;6343;50.868;4.700;2023-06-14T13:26:07;5.60;;;1.60;;
12554;SDS011;6343;50.868;4.700;2023-06-14T13:28:34;3.50;;;2.00;;
12554;SDS011;6343;50.868;4.700;2023-06-14T13:31:00;5.93;;;1.90;;
12554;SDS011;6343;50.868;4.700;2023-06-14T13:33:27;4.95;;;1.70;;
12554;SDS011;6343;50.868;4.700;2023-06-14T13:35:53;4.57;;;1.90;;
12554;SDS011;6343;50.868;4.700;2023-06-14T13:38:19;4.85;;;2.45;;
12554;SDS011;6343;50.868;4.700;2023-06-14T13:40:45;3.72;;;2.17;;
12554;SDS011;6343;50.868;4.700;2023-06-14T13:43:11;3.38;;;1.83;;
12554;SDS011;6343;50.868;4.700;2023-06-14T13:45:37;4.28;;;1.80;;
12554;SDS011;6343;50.868;4.700;2023-06-14T13:48:03;5.57;;;1.55;;
12554;SDS011;6343;50.868;4.700;2023-06-14T13:50:29;7.72;;;1.92;;
12554;SDS011;6343;50.868;4.700;2023-06-14T13:52:55;3.70;;;1.80;;
12554;SDS011;6343;50.868;4.700;2023-06-14T13:55:22;5.10;;;1.88;;
12554;SDS011;6343;50.868;4.700;2023-06-14T13:57:48;6.03;;;1.77;;
12554;SDS011;6343;50.868;4.700;2023-06-14T14:00:14;3.67;;;1.75;;
12554;SDS011;6343;50.868;4.700;2023-06-14T14:02:40;2.13;;;1.75;;
12554;SDS011;6343;50.868;4.700;2023-06-14T14:05:08;5.38;;;1.70;;
12554;SDS011;6343;50.868;4.700;2023-06-14T14:07:34;2.08;;;1.75;;
12554;SDS011;6343;50.868;4.700;2023-06-14T14:10:01;2.30;;;1.50;;
12554;SDS011;6343;50.868;4.700;2023-06-14T14:12:27;7.07;;;1.85;;
12554;SDS011;6343;50.868;4.700;2023-06-14T14:14:53;6.07;;;1.80;;
12554;SDS011;6343;50.868;4.700;2023-06-14T14:17:20;2.40;;;1.80;;
12554;SDS011;6343;50.868;4.700;2023-06-14T14:19:46;6.25;;;1.70;;
12554;SDS011;6343;50.868;4.700;2023-06-14T14:22:12;5.25;;;1.65;;
12554;SDS011;6343;50.868;4.700;2023-06-14T14:24:38;4.10;;;1.90;;
12554;SDS011;6343;50.868;4.700;2023-06-14T14:27:04;2.95;;;1.88;;
12554;SDS011;6343;50.868;4.700;2023-06-14T14:29:31;5.57;;;1.90;;
12554;SDS011;6343;50.868;4.700;2023-06-14T14:31:57;2.40;;;1.83;;
12554;SDS011;6343;50.868;4.700;2023-06-14T14:34:26;3.63;;;1.90;;
12554;SDS011;6343;50.868;4.700;2023-06-14T14:36:53;4.25;;;1.83;;
12554;SDS011;6343;50.868;4.700;2023-06-14T14:39:19;3.70;;;2.25;;
12554;SDS011;6343;50.868;4.700;2023-06-14T14:41:45;3.05;;;2.15;;
12554;SDS011;6343;50.868;4.700;2023-06-14T14:44:12;2.90;;;1.95;;
12554;SDS011;6343;50.868;4.700;2023-06-14T14:46:38;8.82;;;2.00;;
12554;SDS011;6343;50.868;4.700;2023-06-14T14:49:04;8.32;;;2.42;;
12554;SDS011;6343;50.868;4.700;2023-06-14T14:51:30;2.42;;;1.80;;
12554;SDS011;6343;50.868;4.700;2023-06-14T14:53:56;2.67;;;1.92;;
12554;SDS011;6343;50.868;4.700;2023-06-14T14:56:22;3.50;;;1.75;;
12554;SDS011;6343;50.868;4.700;2023-06-14T14:58:48;2.13;;;1.90;;
12554;SDS011;6343;50.868;4.700;2023-06-14T15:01:15;4.28;;;2.15;;
12554;SDS011;6343;50.868;4.700;2023-06-14T15:03:42;5.97;;;2.08;;
12554;SDS011;6343;50.868;4.700;2023-06-14T15:06:08;4.13;;;1.85;;
12554;SDS011;6343;50.868;4.700;2023-06-14T15:08:34;7.05;;;2.30;;
12554;SDS011;6343;50.868;4.700;2023-06-14T15:11:00;3.10;;;2.03;;
12554;SDS011;6343;50.868;4.700;2023-06-14T15:13:27;5.35;;;1.90;;
12554;SDS011;6343;50.868;4.700;2023-06-14T15:15:54;3.83;;;2.28;;
12554;SDS011;6343;50.868;4.700;2023-06-14T15:18:20;2.85;;;1.83;;